KDNS/DNS METAR and TAF weather

Enter ICAO airport designator
Station Type Date Time Source
KDNS METAR 2018/10/21 04:35 UTC NOAA

KDNS 210435Z AUTO 00000KT 10SM CLR M02/M04 A3038 RMK AO2


Station Type Date Time Source
KDNS Decoded METAR 2018/10/21 04:35 UTC NOAA

Denison, IA, United States (KDNS) 41-59N 095-23W
Oct 21, 2018 - 12:35 AM EDT / 2018.10.21 0435 UTC
Wind: Calm:0
Visibility: 10 mile(s):0
Sky conditions: clear
Temperature: 28 F (-2 C)
Dew Point: 24 F (-4 C)
Relative Humidity: 86%
Pressure (altimeter): 30.38 in. Hg (1028 hPa)
ob: KDNS 210435Z AUTO 00000KT 10SM CLR M02/M04 A3038 RMK AO2
cycle: 4

Station Type Date Time Source
KDNS TAF UTC NOAA

Error!


Example: see airport list